sensor_id;sensor_type;location;lat;lon;timestamp;temperature;humidity
5061;DHT22;2549;52.128;21.068;2022-10-17T00:02:17;17.90;99.90
5061;DHT22;2549;52.128;21.068;2022-10-17T00:04:43;17.90;99.90
5061;DHT22;2549;52.128;21.068;2022-10-17T00:07:10;17.90;99.90
5061;DHT22;2549;52.128;21.068;2022-10-17T00:09:38;17.90;99.90
5061;DHT22;2549;52.128;21.068;2022-10-17T00:12:07;17.90;99.90
5061;DHT22;2549;52.128;21.068;2022-10-17T00:14:34;17.90;99.90
5061;DHT22;2549;52.128;21.068;2022-10-17T00:17:01;17.80;99.90
5061;DHT22;2549;52.128;21.068;2022-10-17T00:19:28;17.80;99.90
5061;DHT22;2549;52.128;21.068;2022-10-17T00:21:55;17.80;99.90
5061;DHT22;2549;52.128;21.068;2022-10-17T00:24:22;17.80;99.90
5061;DHT22;2549;52.128;21.068;2022-10-17T00:26:48;17.80;99.90
5061;DHT22;2549;52.128;21.068;2022-10-17T00:29:15;17.70;99.90
5061;DHT22;2549;52.128;21.068;2022-10-17T00:31:42;17.70;99.90
5061;DHT22;2549;52.128;21.068;2022-10-17T00:34:09;17.70;99.90
5061;DHT22;2549;52.128;21.068;2022-10-17T00:36:36;17.70;99.90
5061;DHT22;2549;52.128;21.068;2022-10-17T00:39:03;17.70;99.90
5061;DHT22;2549;52.128;21.068;2022-10-17T00:41:32;17.60;99.90
5061;DHT22;2549;52.128;21.068;2022-10-17T00:44:00;17.60;99.90
5061;DHT22;2549;52.128;21.068;2022-10-17T00:46:33;17.60;99.90
5061;DHT22;2549;52.128;21.068;2022-10-17T00:49:05;17.60;99.90
5061;DHT22;2549;52.128;21.068;2022-10-17T00:51:37;17.60;99.90
5061;DHT22;2549;52.128;21.068;2022-10-17T00:54:07;17.50;99.90
5061;DHT22;2549;52.128;21.068;2022-10-17T00:56:35;17.50;99.90
5061;DHT22;2549;52.128;21.068;2022-10-17T00:59:02;17.50;99.90
5061;DHT22;2549;52.128;21.068;2022-10-17T01:01:29;17.50;99.90
5061;DHT22;2549;52.128;21.068;2022-10-17T01:03:56;17.50;99.90
5061;DHT22;2549;52.128;21.068;2022-10-17T01:06:23;17.40;99.90
5061;DHT22;2549;52.128;21.068;2022-10-17T01:08:50;17.40;99.90
5061;DHT22;2549;52.128;21.068;2022-10-17T01:11:36;17.40;99.90
5061;DHT22;2549;52.128;21.068;2022-10-17T01:14:08;17.40;99.90
5061;DHT22;2549;52.128;21.068;2022-10-17T01:27:48;17.30;99.90
5061;DHT22;2549;52.128;21.068;2022-10-17T01:30:55;17.30;99.90
5061;DHT22;2549;52.128;21.068;2022-10-17T01:33:31;17.30;99.90
5061;DHT22;2549;52.128;21.068;2022-10-17T01:39:07;17.40;99.90
5061;DHT22;2549;52.128;21.068;2022-10-17T01:46:41;17.40;99.90
5061;DHT22;2549;52.128;21.068;2022-10-17T01:49:10;17.40;99.90
5061;DHT22;2549;52.128;21.068;2022-10-17T01:51:45;17.50;99.90
5061;DHT22;2549;52.128;21.068;2022-10-17T01:54:23;17.50;99.90
5061;DHT22;2549;52.128;21.068;2022-10-17T01:56:55;17.50;99.90
5061;DHT22;2549;52.128;21.068;2022-10-17T01:59:45;17.50;99.90
5061;DHT22;2549;52.128;21.068;2022-10-17T02:02:14;17.50;99.90
5061;DHT22;2549;52.128;21.068;2022-10-17T02:04:44;17.50;99.90
5061;DHT22;2549;52.128;21.068;2022-10-17T02:07:12;17.50;99.90
5061;DHT22;2549;52.128;21.068;2022-10-17T02:09:39;17.50;99.90
5061;DHT22;2549;52.128;21.068;2022-10-17T02:20:33;17.50;99.90
5061;DHT22;2549;52.128;21.068;2022-10-17T02:26:20;17.40;99.90
5061;DHT22;2549;52.128;21.068;2022-10-17T02:29:04;17.30;99.90
5061;DHT22;2549;52.128;21.068;2022-10-17T02:31:40;17.30;99.90
5061;DHT22;2549;52.128;21.068;2022-10-17T02:34:26;17.30;99.90
5061;DHT22;2549;52.128;21.068;2022-10-17T02:36:58;17.30;99.90
5061;DHT22;2549;52.128;21.068;2022-10-17T02:39:27;17.20;99.90
5061;DHT22;2549;52.128;21.068;2022-10-17T02:41:56;17.20;99.90
5061;DHT22;2549;52.128;21.068;2022-10-17T02:44:25;17.20;99.90
5061;DHT22;2549;52.128;21.068;2022-10-17T02:47:08;17.20;99.90
5061;DHT22;2549;52.128;21.068;2022-10-17T02:49:40;17.20;99.90
5061;DHT22;2549;52.128;21.068;2022-10-17T02:52:19;17.20;99.90
5061;DHT22;2549;52.128;21.068;2022-10-17T02:54:54;17.10;99.90
5061;DHT22;2549;52.128;21.068;2022-10-17T02:57:29;17.10;99.90
5061;DHT22;2549;52.128;21.068;2022-10-17T02:59:58;17.10;99.90
5061;DHT22;2549;52.128;21.068;2022-10-17T03:02:26;17.10;99.90
5061;DHT22;2549;52.128;21.068;2022-10-17T03:04:54;17.10;99.90
5061;DHT22;2549;52.128;21.068;2022-10-17T03:07:21;17.00;99.90
5061;DHT22;2549;52.128;21.068;2022-10-17T03:09:48;17.00;99.90
5061;DHT22;2549;52.128;21.068;2022-10-17T03:12:15;17.00;99.90
5061;DHT22;2549;52.128;21.068;2022-10-17T03:14:42;16.90;99.90
5061;DHT22;2549;52.128;21.068;2022-10-17T03:17:09;16.90;99.90
5061;DHT22;2549;52.128;21.068;2022-10-17T03:19:36;16.90;99.90
5061;DHT22;2549;52.128;21.068;2022-10-17T03:22:02;16.90;99.90
5061;DHT22;2549;52.128;21.068;2022-10-17T03:24:29;16.90;99.90
5061;DHT22;2549;52.128;21.068;2022-10-17T03:26:56;16.80;99.90
5061;DHT22;2549;52.128;21.068;2022-10-17T03:29:23;16.90;99.90
5061;DHT22;2549;52.128;21.068;2022-10-17T03:31:50;16.90;99.90
5061;DHT22;2549;52.128;21.068;2022-10-17T03:34:16;16.90;99.90
5061;DHT22;2549;52.128;21.068;2022-10-17T03:36:45;16.90;99.90
5061;DHT22;2549;52.128;21.068;2022-10-17T03:39:11;16.90;99.90
5061;DHT22;2549;52.128;21.068;2022-10-17T03:41:38;16.90;99.90
5061;DHT22;2549;52.128;21.068;2022-10-17T03:44:05;16.90;99.90
5061;DHT22;2549;52.128;21.068;2022-10-17T03:46:32;16.90;99.90
5061;DHT22;2549;52.128;21.068;2022-10-17T03:48:59;16.90;99.90
5061;DHT22;2549;52.128;21.068;2022-10-17T03:51:26;16.90;99.90
5061;DHT22;2549;52.128;21.068;2022-10-17T03:53:53;16.90;99.90
5061;DHT22;2549;52.128;21.068;2022-10-17T03:56:22;16.90;99.90
5061;DHT22;2549;52.128;21.068;2022-10-17T03:58:49;16.80;99.90
5061;DHT22;2549;52.128;21.068;2022-10-17T04:01:17;16.90;99.90
5061;DHT22;2549;52.128;21.068;2022-10-17T04:03:48;16.90;99.90
5061;DHT22;2549;52.128;21.068;2022-10-17T04:06:16;16.80;99.90
5061;DHT22;2549;52.128;21.068;2022-10-17T04:08:43;16.80;99.90
5061;DHT22;2549;52.128;21.068;2022-10-17T04:11:13;16.80;99.90
5061;DHT22;2549;52.128;21.068;2022-10-17T04:13:40;16.80;99.90
5061;DHT22;2549;52.128;21.068;2022-10-17T04:16:11;16.70;99.90
5061;DHT22;2549;52.128;21.068;2022-10-17T04:18:39;16.80;99.90
5061;DHT22;2549;52.128;21.068;2022-10-17T04:21:06;16.80;99.90
5061;DHT22;2549;52.128;21.068;2022-10-17T04:23:34;16.70;99.90
5061;DHT22;2549;52.128;21.068;2022-10-17T04:26:02;16.70;99.90
5061;DHT22;2549;52.128;21.068;2022-10-17T04:28:29;16.70;99.90
5061;DHT22;2549;52.128;21.068;2022-10-17T04:30:57;16.70;99.90
5061;DHT22;2549;52.128;21.068;2022-10-17T04:33:25;16.70;99.90
5061;DHT22;2549;52.128;21.068;2022-10-17T04:35:59;16.70;99.90
5061;DHT22;2549;52.128;21.068;2022-10-17T04:38:27;16.70;99.90
5061;DHT22;2549;52.128;21.068;2022-10-17T04:41:01;16.70;99.90
5061;DHT22;2549;52.128;21.068;2022-10-17T04:43:36;16.70;99.90
5061;DHT22;2549;52.128;21.068;2022-10-17T04:46:06;16.70;99.90
5061;DHT22;2549;52.128;21.068;2022-10-17T04:48:33;16.60;99.90
5061;DHT22;2549;52.128;21.068;2022-10-17T04:51:23;16.60;99.90
5061;DHT22;2549;52.128;21.068;2022-10-17T04:53:52;16.60;99.90
5061;DHT22;2549;52.128;21.068;2022-10-17T04:56:21;16.60;99.90
5061;DHT22;2549;52.128;21.068;2022-10-17T04:58:49;16.60;99.90
5061;DHT22;2549;52.128;21.068;2022-10-17T05:01:18;16.60;99.90
5061;DHT22;2549;52.128;21.068;2022-10-17T05:03:45;16.50;99.90
5061;DHT22;2549;52.128;21.068;2022-10-17T05:06:15;16.50;99.90
5061;DHT22;2549;52.128;21.068;2022-10-17T05:08:42;16.60;99.90
5061;DHT22;2549;52.128;21.068;2022-10-17T05:11:16;16.50;99.90
5061;DHT22;2549;52.128;21.068;2022-10-17T05:13:44;16.50;99.90
5061;DHT22;2549;52.128;21.068;2022-10-17T05:16:11;16.60;99.90
5061;DHT22;2549;52.128;21.068;2022-10-17T05:18:37;16.60;99.90
5061;DHT22;2549;52.128;21.068;2022-10-17T05:21:04;16.60;99.90
5061;DHT22;2549;52.128;21.068;2022-10-17T05:23:31;16.60;99.90
5061;DHT22;2549;52.128;21.068;2022-10-17T05:25:58;16.60;99.90
5061;DHT22;2549;52.128;21.068;2022-10-17T05:28:26;16.50;99.90
5061;DHT22;2549;52.128;21.068;2022-10-17T05:30:53;16.50;99.90
5061;DHT22;2549;52.128;21.068;2022-10-17T05:33:21;16.60;99.90
5061;DHT22;2549;52.128;21.068;2022-10-17T05:35:48;16.60;99.90
5061;DHT22;2549;52.128;21.068;2022-10-17T05:38:15;16.50;99.90
5061;DHT22;2549;52.128;21.068;2022-10-17T05:40:42;16.60;99.90
5061;DHT22;2549;52.128;21.068;2022-10-17T05:43:08;16.60;99.90
5061;DHT22;2549;52.128;21.068;2022-10-17T05:45:35;16.60;99.90
5061;DHT22;2549;52.128;21.068;2022-10-17T05:48:02;16.60;99.90
5061;DHT22;2549;52.128;21.068;2022-10-17T05:50:29;16.60;99.90
5061;DHT22;2549;52.128;21.068;2022-10-17T05:52:56;16.60;99.90
5061;DHT22;2549;52.128;21.068;2022-10-17T05:55:23;16.60;99.90
5061;DHT22;2549;52.128;21.068;2022-10-17T05:57:50;16.60;99.90
5061;DHT22;2549;52.128;21.068;2022-10-17T06:00:19;16.60;99.90
5061;DHT22;2549;52.128;21.068;2022-10-17T06:02:47;16.60;99.90
5061;DHT22;2549;52.128;21.068;2022-10-17T06:05:14;16.60;99.90
5061;DHT22;2549;52.128;21.068;2022-10-17T06:07:41;16.60;99.90
5061;DHT22;2549;52.128;21.068;2022-10-17T06:10:09;16.70;99.90
5061;DHT22;2549;52.128;21.068;2022-10-17T06:12:38;16.70;99.90
5061;DHT22;2549;52.128;21.068;2022-10-17T06:15:05;16.70;99.90
5061;DHT22;2549;52.128;21.068;2022-10-17T06:17:32;16.70;99.90
5061;DHT22;2549;52.128;21.068;2022-10-17T06:19:59;16.80;99.90
5061;DHT22;2549;52.128;21.068;2022-10-17T06:22:26;16.80;99.90
5061;DHT22;2549;52.128;21.068;2022-10-17T06:24:53;16.80;99.90
5061;DHT22;2549;52.128;21.068;2022-10-17T06:27:20;16.80;99.90
5061;DHT22;2549;52.128;21.068;2022-10-17T06:29:47;16.80;99.90
5061;DHT22;2549;52.128;21.068;2022-10-17T06:32:14;16.80;99.90
5061;DHT22;2549;52.128;21.068;2022-10-17T06:34:41;16.80;99.90
5061;DHT22;2549;52.128;21.068;2022-10-17T06:37:08;16.80;99.90
5061;DHT22;2549;52.128;21.068;2022-10-17T06:39:34;16.80;99.90
5061;DHT22;2549;52.128;21.068;2022-10-17T06:42:02;16.80;99.90
5061;DHT22;2549;52.128;21.068;2022-10-17T06:44:29;16.80;99.90
5061;DHT22;2549;52.128;21.068;2022-10-17T06:47:00;16.80;99.90
5061;DHT22;2549;52.128;21.068;2022-10-17T06:49:27;16.80;99.90
5061;DHT22;2549;52.128;21.068;2022-10-17T06:51:54;16.90;99.90
5061;DHT22;2549;52.128;21.068;2022-10-17T06:54:21;16.90;99.90
5061;DHT22;2549;52.128;21.068;2022-10-17T06:56:48;16.90;99.90
5061;DHT22;2549;52.128;21.068;2022-10-17T06:59:15;16.90;99.90
5061;DHT22;2549;52.128;21.068;2022-10-17T07:01:42;16.90;99.90
5061;DHT22;2549;52.128;21.068;2022-10-17T07:04:13;17.00;99.90
5061;DHT22;2549;52.128;21.068;2022-10-17T07:06:40;17.00;99.90
5061;DHT22;2549;52.128;21.068;2022-10-17T07:09:06;17.00;99.90
5061;DHT22;2549;52.128;21.068;2022-10-17T07:11:33;17.10;99.90
5061;DHT22;2549;52.128;21.068;2022-10-17T07:14:03;17.10;99.90
5061;DHT22;2549;52.128;21.068;2022-10-17T07:16:30;17.10;99.90
5061;DHT22;2549;52.128;21.068;2022-10-17T07:18:57;17.10;99.90
5061;DHT22;2549;52.128;21.068;2022-10-17T07:21:24;17.20;99.90
5061;DHT22;2549;52.128;21.068;2022-10-17T07:23:51;17.20;99.90
5061;DHT22;2549;52.128;21.068;2022-10-17T07:26:18;17.20;99.90
5061;DHT22;2549;52.128;21.068;2022-10-17T07:28:46;17.30;99.90
5061;DHT22;2549;52.128;21.068;2022-10-17T07:31:16;17.30;99.90
5061;DHT22;2549;52.128;21.068;2022-10-17T07:33:43;17.30;99.90
5061;DHT22;2549;52.128;21.068;2022-10-17T07:36:11;17.30;99.90
5061;DHT22;2549;52.128;21.068;2022-10-17T07:38:38;17.40;99.90
5061;DHT22;2549;52.128;21.068;2022-10-17T07:41:07;17.40;99.90
5061;DHT22;2549;52.128;21.068;2022-10-17T07:43:35;17.40;99.90
5061;DHT22;2549;52.128;21.068;2022-10-17T07:46:03;17.50;99.90
5061;DHT22;2549;52.128;21.068;2022-10-17T07:48:31;17.50;99.90
5061;DHT22;2549;52.128;21.068;2022-10-17T07:51:01;17.50;99.90
5061;DHT22;2549;52.128;21.068;2022-10-17T07:53:28;17.50;99.90
5061;DHT22;2549;52.128;21.068;2022-10-17T07:55:55;17.60;99.90
5061;DHT22;2549;52.128;21.068;2022-10-17T07:58:22;17.60;99.90
5061;DHT22;2549;52.128;21.068;2022-10-17T08:00:48;17.70;99.90
5061;DHT22;2549;52.128;21.068;2022-10-17T08:03:16;17.70;99.90
5061;DHT22;2549;52.128;21.068;2022-10-17T08:05:43;17.70;99.90
5061;DHT22;2549;52.128;21.068;2022-10-17T08:08:10;17.70;99.90
5061;DHT22;2549;52.128;21.068;2022-10-17T08:10:37;17.80;99.90
5061;DHT22;2549;52.128;21.068;2022-10-17T08:13:04;17.80;99.90
5061;DHT22;2549;52.128;21.068;2022-10-17T08:15:31;17.80;99.90
5061;DHT22;2549;52.128;21.068;2022-10-17T08:17:58;17.90;99.90
5061;DHT22;2549;52.128;21.068;2022-10-17T08:20:25;17.90;99.90
5061;DHT22;2549;52.128;21.068;2022-10-17T08:22:55;17.90;99.90
5061;DHT22;2549;52.128;21.068;2022-10-17T08:25:22;18.00;99.90
5061;DHT22;2549;52.128;21.068;2022-10-17T08:27:49;18.10;99.90
5061;DHT22;2549;52.128;21.068;2022-10-17T08:30:16;18.10;99.90
5061;DHT22;2549;52.128;21.068;2022-10-17T08:32:43;18.10;99.90
5061;DHT22;2549;52.128;21.068;2022-10-17T08:35:10;18.20;99.90
5061;DHT22;2549;52.128;21.068;2022-10-17T08:37:37;18.20;99.90
5061;DHT22;2549;52.128;21.068;2022-10-17T08:40:04;18.20;99.90
5061;DHT22;2549;52.128;21.068;2022-10-17T08:45:28;18.20;99.90
5061;DHT22;2549;52.128;21.068;2022-10-17T08:48:08;18.30;99.90
5061;DHT22;2549;52.128;21.068;2022-10-17T08:50:40;18.30;99.90
5061;DHT22;2549;52.128;21.068;2022-10-17T08:53:17;18.30;99.90
5061;DHT22;2549;52.128;21.068;2022-10-17T08:55:47;18.40;99.90
5061;DHT22;2549;52.128;21.068;2022-10-17T09:00:59;18.40;99.90
5061;DHT22;2549;52.128;21.068;2022-10-17T09:06:23;18.50;99.90
5061;DHT22;2549;52.128;21.068;2022-10-17T09:11:39;18.50;99.90
5061;DHT22;2549;52.128;21.068;2022-10-17T09:16:53;18.60;99.90
5061;DHT22;2549;52.128;21.068;2022-10-17T09:19:29;18.60;99.90
5061;DHT22;2549;52.128;21.068;2022-10-17T09:22:02;18.60;99.90
5061;DHT22;2549;52.128;21.068;2022-10-17T09:24:48;18.70;99.90
5061;DHT22;2549;52.128;21.068;2022-10-17T09:33:37;18.80;99.90
5061;DHT22;2549;52.128;21.068;2022-10-17T09:36:28;18.90;99.90
5061;DHT22;2549;52.128;21.068;2022-10-17T09:38:59;18.90;99.90
5061;DHT22;2549;52.128;21.068;2022-10-17T09:41:39;19.00;99.90
5061;DHT22;2549;52.128;21.068;2022-10-17T09:44:20;19.00;99.90
5061;DHT22;2549;52.128;21.068;2022-10-17T09:49:42;19.10;99.90
5061;DHT22;2549;52.128;21.068;2022-10-17T09:52:41;19.10;99.90
5061;DHT22;2549;52.128;21.068;2022-10-17T09:58:02;19.20;99.90
5061;DHT22;2549;52.128;21.068;2022-10-17T10:00:48;19.20;99.90
5061;DHT22;2549;52.128;21.068;2022-10-17T10:03:19;19.30;99.90
5061;DHT22;2549;52.128;21.068;2022-10-17T10:06:03;19.30;99.90
5061;DHT22;2549;52.128;21.068;2022-10-17T10:08:36;19.40;99.90
5061;DHT22;2549;52.128;21.068;2022-10-17T10:11:06;19.40;99.90
5061;DHT22;2549;52.128;21.068;2022-10-17T10:13:39;19.50;99.90
5061;DHT22;2549;52.128;21.068;2022-10-17T10:16:22;19.40;99.90
5061;DHT22;2549;52.128;21.068;2022-10-17T10:18:55;19.50;99.90
5061;DHT22;2549;52.128;21.068;2022-10-17T10:21:25;19.50;99.90
5061;DHT22;2549;52.128;21.068;2022-10-17T10:26:28;19.60;99.90
5061;DHT22;2549;52.128;21.068;2022-10-17T10:29:00;19.70;99.90
5061;DHT22;2549;52.128;21.068;2022-10-17T10:31:34;19.70;99.90
5061;DHT22;2549;52.128;21.068;2022-10-17T10:34:19;19.70;99.90
5061;DHT22;2549;52.128;21.068;2022-10-17T10:36:51;19.70;99.90
5061;DHT22;2549;52.128;21.068;2022-10-17T10:41:55;19.90;99.90
5061;DHT22;2549;52.128;21.068;2022-10-17T10:44:24;19.90;99.90
5061;DHT22;2549;52.128;21.068;2022-10-17T10:47:06;19.90;99.90
5061;DHT22;2549;52.128;21.068;2022-10-17T10:49:34;19.90;99.90
5061;DHT22;2549;52.128;21.068;2022-10-17T10:52:02;20.00;99.90
5061;DHT22;2549;52.128;21.068;2022-10-17T10:54:42;20.00;99.90
5061;DHT22;2549;52.128;21.068;2022-10-17T10:57:18;20.00;99.90
5061;DHT22;2549;52.128;21.068;2022-10-17T11:02:44;20.00;99.90
5061;DHT22;2549;52.128;21.068;2022-10-17T11:05:21;20.10;99.90
5061;DHT22;2549;52.128;21.068;2022-10-17T11:07:53;20.10;99.90
5061;DHT22;2549;52.128;21.068;2022-10-17T11:10:40;20.10;99.90
5061;DHT22;2549;52.128;21.068;2022-10-17T11:18:27;20.30;99.90
5061;DHT22;2549;52.128;21.068;2022-10-17T11:21:12;20.30;99.90
5061;DHT22;2549;52.128;21.068;2022-10-17T11:23:47;20.40;99.90
5061;DHT22;2549;52.128;21.068;2022-10-17T11:26:25;20.40;99.90
5061;DHT22;2549;52.128;21.068;2022-10-17T11:28:53;20.40;99.90
5061;DHT22;2549;52.128;21.068;2022-10-17T11:31:32;20.50;99.90
5061;DHT22;2549;52.128;21.068;2022-10-17T11:36:40;20.50;99.90
5061;DHT22;2549;52.128;21.068;2022-10-17T11:44:36;20.60;99.90
5061;DHT22;2549;52.128;21.068;2022-10-17T11:49:41;20.60;99.90
5061;DHT22;2549;52.128;21.068;2022-10-17T11:52:43;20.70;99.90
5061;DHT22;2549;52.128;21.068;2022-10-17T11:55:30;20.60;99.90
5061;DHT22;2549;52.128;21.068;2022-10-17T12:00:58;20.60;99.90
5061;DHT22;2549;52.128;21.068;2022-10-17T12:08:52;20.70;99.90
5061;DHT22;2549;52.128;21.068;2022-10-17T12:11:39;20.70;99.90
5061;DHT22;2549;52.128;21.068;2022-10-17T12:16:59;20.80;99.90
5061;DHT22;2549;52.128;21.068;2022-10-17T12:19:30;20.80;99.90
5061;DHT22;2549;52.128;21.068;2022-10-17T12:24:40;20.90;99.90
5061;DHT22;2549;52.128;21.068;2022-10-17T12:27:32;20.90;99.90
5061;DHT22;2549;52.128;21.068;2022-10-17T12:32:52;21.00;99.90
5061;DHT22;2549;52.128;21.068;2022-10-17T12:35:34;21.10;99.90
5061;DHT22;2549;52.128;21.068;2022-10-17T12:38:17;21.10;99.90
5061;DHT22;2549;52.128;21.068;2022-10-17T12:45:49;21.10;99.90
5061;DHT22;2549;52.128;21.068;2022-10-17T12:53:58;21.10;99.90
5061;DHT22;2549;52.128;21.068;2022-10-17T12:56:39;21.10;99.90
5061;DHT22;2549;52.128;21.068;2022-10-17T12:59:23;21.10;99.90
5061;DHT22;2549;52.128;21.068;2022-10-17T13:01:53;21.10;99.90
5061;DHT22;2549;52.128;21.068;2022-10-17T13:04:21;21.10;99.90
5061;DHT22;2549;52.128;21.068;2022-10-17T13:06:52;21.10;99.90
5061;DHT22;2549;52.128;21.068;2022-10-17T13:11:50;21.10;99.90
5061;DHT22;2549;52.128;21.068;2022-10-17T13:14:19;21.10;99.90
5061;DHT22;2549;52.128;21.068;2022-10-17T13:17:05;21.10;99.90
5061;DHT22;2549;52.128;21.068;2022-10-17T13:19:43;21.10;99.90
5061;DHT22;2549;52.128;21.068;2022-10-17T13:24:44;21.10;99.90
5061;DHT22;2549;52.128;21.068;2022-10-17T13:27:33;21.10;99.90
5061;DHT22;2549;52.128;21.068;2022-10-17T13:30:30;21.20;99.90
5061;DHT22;2549;52.128;21.068;2022-10-17T13:32:59;21.20;99.90
5061;DHT22;2549;52.128;21.068;2022-10-17T13:35:34;21.20;99.90
5061;DHT22;2549;52.128;21.068;2022-10-17T13:38:26;21.20;99.90
5061;DHT22;2549;52.128;21.068;2022-10-17T13:40:54;21.20;99.90
5061;DHT22;2549;52.128;21.068;2022-10-17T13:43:41;21.20;99.90
5061;DHT22;2549;52.128;21.068;2022-10-17T13:46:20;21.20;99.90
5061;DHT22;2549;52.128;21.068;2022-10-17T13:51:42;21.20;99.90
5061;DHT22;2549;52.128;21.068;2022-10-17T13:54:33;21.20;99.90
5061;DHT22;2549;52.128;21.068;2022-10-17T13:57:01;21.20;99.90
5061;DHT22;2549;52.128;21.068;2022-10-17T13:59:37;21.20;99.90
5061;DHT22;2549;52.128;21.068;2022-10-17T14:02:10;21.20;99.90
5061;DHT22;2549;52.128;21.068;2022-10-17T14:04:39;21.10;99.90
5061;DHT22;2549;52.128;21.068;2022-10-17T14:07:33;21.10;99.90
5061;DHT22;2549;52.128;21.068;2022-10-17T14:10:35;21.10;99.90
5061;DHT22;2549;52.128;21.068;2022-10-17T14:13:05;21.00;99.90
5061;DHT22;2549;52.128;21.068;2022-10-17T14:15:34;21.00;99.90
5061;DHT22;2549;52.128;21.068;2022-10-17T14:18:07;20.90;99.90
5061;DHT22;2549;52.128;21.068;2022-10-17T14:20:35;20.90;99.90
5061;DHT22;2549;52.128;21.068;2022-10-17T14:26:15;20.90;99.90
5061;DHT22;2549;52.128;21.068;2022-10-17T14:28:45;20.90;99.90
5061;DHT22;2549;52.128;21.068;2022-10-17T14:33:47;20.90;99.90
5061;DHT22;2549;52.128;21.068;2022-10-17T14:36:18;20.90;99.90
5061;DHT22;2549;52.128;21.068;2022-10-17T14:38:48;20.80;99.90
5061;DHT22;2549;52.128;21.068;2022-10-17T14:41:25;20.80;99.90
5061;DHT22;2549;52.128;21.068;2022-10-17T14:44:16;20.80;99.90
5061;DHT22;2549;52.128;21.068;2022-10-17T14:46:45;20.80;99.90
5061;DHT22;2549;52.128;21.068;2022-10-17T14:49:22;20.80;99.90
5061;DHT22;2549;52.128;21.068;2022-10-17T14:54:46;20.80;99.90
5061;DHT22;2549;52.128;21.068;2022-10-17T15:00:14;20.70;99.90
5061;DHT22;2549;52.128;21.068;2022-10-17T15:02:40;20.70;99.90
5061;DHT22;2549;52.128;21.068;2022-10-17T15:05:08;20.70;99.90
5061;DHT22;2549;52.128;21.068;2022-10-17T15:07:39;20.70;99.90
5061;DHT22;2549;52.128;21.068;2022-10-17T15:10:33;20.70;99.90
5061;DHT22;2549;52.128;21.068;2022-10-17T15:13:03;20.70;99.90
5061;DHT22;2549;52.128;21.068;2022-10-17T15:15:53;20.70;99.90
5061;DHT22;2549;52.128;21.068;2022-10-17T15:18:22;20.70;99.90
5061;DHT22;2549;52.128;21.068;2022-10-17T15:20:53;20.70;99.90
5061;DHT22;2549;52.128;21.068;2022-10-17T15:23:33;20.70;99.90
5061;DHT22;2549;52.128;21.068;2022-10-17T15:26:26;20.70;99.90
5061;DHT22;2549;52.128;21.068;2022-10-17T15:29:22;20.70;99.90
5061;DHT22;2549;52.128;21.068;2022-10-17T15:31:51;20.60;99.90
5061;DHT22;2549;52.128;21.068;2022-10-17T15:34:20;20.60;99.90
5061;DHT22;2549;52.128;21.068;2022-10-17T15:37:04;20.60;99.90
5061;DHT22;2549;52.128;21.068;2022-10-17T15:39:34;20.60;99.90
5061;DHT22;2549;52.128;21.068;2022-10-17T15:42:01;20.60;99.90
5061;DHT22;2549;52.128;21.068;2022-10-17T15:44:28;20.50;99.90
5061;DHT22;2549;52.128;21.068;2022-10-17T15:46:55;20.50;99.90
5061;DHT22;2549;52.128;21.068;2022-10-17T15:49:22;20.50;99.90
5061;DHT22;2549;52.128;21.068;2022-10-17T15:51:49;20.50;99.90
5061;DHT22;2549;52.128;21.068;2022-10-17T15:54:20;20.50;99.90
5061;DHT22;2549;52.128;21.068;2022-10-17T15:56:52;20.50;99.90
5061;DHT22;2549;52.128;21.068;2022-10-17T15:59:24;20.40;99.90
5061;DHT22;2549;52.128;21.068;2022-10-17T16:01:52;20.40;99.90
5061;DHT22;2549;52.128;21.068;2022-10-17T16:04:19;20.40;99.90
5061;DHT22;2549;52.128;21.068;2022-10-17T16:06:46;20.40;99.90
5061;DHT22;2549;52.128;21.068;2022-10-17T16:09:14;20.40;99.90
5061;DHT22;2549;52.128;21.068;2022-10-17T16:11:42;20.40;99.90
5061;DHT22;2549;52.128;21.068;2022-10-17T16:14:12;20.30;99.90
5061;DHT22;2549;52.128;21.068;2022-10-17T16:16:40;20.30;99.90
5061;DHT22;2549;52.128;21.068;2022-10-17T16:19:07;20.30;99.90
5061;DHT22;2549;52.128;21.068;2022-10-17T16:21:37;20.30;99.90
5061;DHT22;2549;52.128;21.068;2022-10-17T16:24:04;20.20;99.90
5061;DHT22;2549;52.128;21.068;2022-10-17T16:26:31;20.20;99.90
5061;DHT22;2549;52.128;21.068;2022-10-17T16:28:58;20.20;99.90
5061;DHT22;2549;52.128;21.068;2022-10-17T16:31:36;20.20;99.90
5061;DHT22;2549;52.128;21.068;2022-10-17T16:34:06;20.20;99.90
5061;DHT22;2549;52.128;21.068;2022-10-17T16:36:34;20.20;99.90
5061;DHT22;2549;52.128;21.068;2022-10-17T16:39:01;20.20;99.90
5061;DHT22;2549;52.128;21.068;2022-10-17T16:41:30;20.20;99.90
5061;DHT22;2549;52.128;21.068;2022-10-17T16:43:59;20.20;99.90
5061;DHT22;2549;52.128;21.068;2022-10-17T16:46:28;20.20;99.90
5061;DHT22;2549;52.128;21.068;2022-10-17T16:48:55;20.20;99.90
5061;DHT22;2549;52.128;21.068;2022-10-17T16:51:23;20.10;99.90
5061;DHT22;2549;52.128;21.068;2022-10-17T16:53:51;20.10;99.90
5061;DHT22;2549;52.128;21.068;2022-10-17T16:56:21;20.10;99.90
5061;DHT22;2549;52.128;21.068;2022-10-17T16:58:49;20.10;99.90
5061;DHT22;2549;52.128;21.068;2022-10-17T17:01:19;20.10;99.90
5061;DHT22;2549;52.128;21.068;2022-10-17T17:03:46;20.10;99.90
5061;DHT22;2549;52.128;21.068;2022-10-17T17:06:17;20.10;99.90
5061;DHT22;2549;52.128;21.068;2022-10-17T17:08:45;20.10;99.90
5061;DHT22;2549;52.128;21.068;2022-10-17T17:11:13;20.10;99.90
5061;DHT22;2549;52.128;21.068;2022-10-17T17:13:41;20.10;99.90
5061;DHT22;2549;52.128;21.068;2022-10-17T17:16:14;20.10;99.90
5061;DHT22;2549;52.128;21.068;2022-10-17T17:18:42;20.10;99.90
5061;DHT22;2549;52.128;21.068;2022-10-17T17:21:12;20.10;99.90
5061;DHT22;2549;52.128;21.068;2022-10-17T17:23:40;20.10;99.90
5061;DHT22;2549;52.128;21.068;2022-10-17T17:26:14;20.10;99.90
5061;DHT22;2549;52.128;21.068;2022-10-17T17:28:42;20.00;99.90
5061;DHT22;2549;52.128;21.068;2022-10-17T17:31:12;20.00;99.90
5061;DHT22;2549;52.128;21.068;2022-10-17T17:33:40;20.00;99.90
5061;DHT22;2549;52.128;21.068;2022-10-17T17:36:10;20.00;99.90
5061;DHT22;2549;52.128;21.068;2022-10-17T17:38:37;20.00;99.90
5061;DHT22;2549;52.128;21.068;2022-10-17T17:41:06;20.00;99.90
5061;DHT22;2549;52.128;21.068;2022-10-17T17:43:34;19.90;99.90
5061;DHT22;2549;52.128;21.068;2022-10-17T17:46:01;19.90;99.90
5061;DHT22;2549;52.128;21.068;2022-10-17T17:48:28;19.90;99.90
5061;DHT22;2549;52.128;21.068;2022-10-17T17:50:55;19.90;99.90
5061;DHT22;2549;52.128;21.068;2022-10-17T17:53:22;19.90;99.90
5061;DHT22;2549;52.128;21.068;2022-10-17T17:56:10;19.90;99.90
5061;DHT22;2549;52.128;21.068;2022-10-17T17:58:40;19.90;99.90
5061;DHT22;2549;52.128;21.068;2022-10-17T18:01:14;19.90;99.90
5061;DHT22;2549;52.128;21.068;2022-10-17T18:03:44;19.90;99.90
5061;DHT22;2549;52.128;21.068;2022-10-17T18:06:12;19.90;99.90
5061;DHT22;2549;52.128;21.068;2022-10-17T18:08:42;19.90;99.90
5061;DHT22;2549;52.128;21.068;2022-10-17T18:11:09;19.80;99.90
5061;DHT22;2549;52.128;21.068;2022-10-17T18:13:36;19.80;99.90
5061;DHT22;2549;52.128;21.068;2022-10-17T18:16:03;19.80;99.90
5061;DHT22;2549;52.128;21.068;2022-10-17T18:18:40;19.80;99.90